Time;durP1;ratioP1;P1;durP2;ratioP2;P2;SDS_P1;SDS_P2;PMS_P1;PMS_P2;Temp;Humidity;BMP_temperature;BMP_pressure;BME280_temperature;BME280_humidity;BME280_pressure;Samples;Min_cycle;Max_cycle;Signal;HPM_P1;HPM_P2
2023/07/01 00:01:48;;;;;;;38.50;4.60;;;;;;;25.12;59.79;98826.38;7303620;19;129350;-39
2023/07/01 00:04:13;;;;;;;33.90;3.53;;;;;;;25.09;59.51;98824.91;7304576;19;129705;-39
2023/07/01 00:06:41;;;;;;;17.10;2.43;;;;;;;25.12;59.80;98829.00;7308388;19;129784;-40
2023/07/01 00:09:09;;;;;;;44.80;4.32;;;;;;;25.11;59.18;98828.19;7311844;19;130116;-38
2023/07/01 00:11:35;;;;;;;39.10;4.15;;;;;;;25.12;59.41;98829.00;7312580;19;129960;-37
2023/07/01 00:14:00;;;;;;;49.60;4.93;;;;;;;25.12;59.32;98823.75;7311863;19;129535;-40
2023/07/01 00:16:27;;;;;;;38.13;4.13;;;;;;;25.12;59.82;98829.78;7313473;19;129634;-40
2023/07/01 00:18:53;;;;;;;35.75;3.88;;;;;;;25.10;59.45;98820.47;7312285;19;129370;-39
2023/07/01 00:21:18;;;;;;;40.50;4.47;;;;;;;25.10;59.17;98826.56;7311076;19;131133;-41
2023/07/01 00:23:43;;;;;;;50.90;4.83;;;;;;;25.12;59.49;98821.09;7310395;19;131351;-39
2023/07/01 00:26:09;;;;;;;23.87;3.07;;;;;;;25.11;59.80;98824.72;7314455;19;130526;-39
2023/07/01 00:28:34;;;;;;;38.50;4.07;;;;;;;25.12;59.80;98821.09;7310909;19;129616;-39
2023/07/01 00:30:59;;;;;;;44.20;4.57;;;;;;;25.11;59.69;98820.28;7311216;19;130629;-40
2023/07/01 00:33:25;;;;;;;42.70;4.53;;;;;;;25.11;59.82;98825.53;7309655;19;130469;-40
2023/07/01 00:35:50;;;;;;;49.57;4.83;;;;;;;25.05;59.31;98812.28;7309581;19;130621;-39
2023/07/01 00:38:15;;;;;;;39.77;4.17;;;;;;;25.12;59.09;98823.75;7312621;19;129236;-39
2023/07/01 00:40:41;;;;;;;9.57;1.70;;;;;;;25.06;59.92;98813.91;7315890;19;128855;-40
2023/07/01 00:43:06;;;;;;;67.40;5.87;;;;;;;25.11;59.08;98817.66;7313511;19;130034;-41
2023/07/01 00:45:31;;;;;;;23.33;2.97;;;;;;;25.11;59.77;98808.94;7312862;19;130319;-40
2023/07/01 00:47:57;;;;;;;43.67;4.40;;;;;;;25.11;59.82;98807.13;7312727;19;128752;-41
2023/07/01 00:50:22;;;;;;;17.30;2.80;;;;;;;25.05;59.90;98796.53;7310898;19;129269;-39
2023/07/01 00:52:49;;;;;;;35.40;3.77;;;;;;;25.02;59.12;98791.63;7315963;19;129710;-39
2023/07/01 00:55:14;;;;;;;38.10;3.42;;;;;;;25.11;59.43;98811.56;7315040;19;129293;-40
2023/07/01 00:57:39;;;;;;;43.13;4.50;;;;;;;25.10;59.36;98809.94;7311550;19;131098;-39
2023/07/01 01:00:10;;;;;;;31.80;3.43;;;;;;;25.09;59.23;98803.06;7309421;19;129448;-38
2023/07/01 01:03:21;;;;;;;42.53;4.05;;;;;;;25.14;59.57;98805.97;7307492;19;130078;-40
2023/07/01 01:06:10;;;;;;;61.15;5.38;;;;;;;25.13;59.65;98805.13;7307682;19;129781;-39
2023/07/01 01:08:42;;;;;;;41.58;4.50;;;;;;;25.10;59.65;98799.44;7307337;19;129620;-40
2023/07/01 01:11:11;;;;;;;42.60;4.28;;;;;;;25.07;59.45;98800.59;7309743;19;129507;-38
2023/07/01 01:13:38;;;;;;;32.47;3.42;;;;;;;25.06;59.79;98804.22;7309526;19;129775;-39
2023/07/01 01:16:04;;;;;;;44.05;4.25;;;;;;;25.07;59.52;98799.78;7309907;19;130751;-41
2023/07/01 01:18:32;;;;;;;11.70;2.07;;;;;;;25.09;59.87;98797.81;7311322;19;129758;-40
2023/07/01 01:20:59;;;;;;;37.13;3.78;;;;;;;25.09;59.79;98797.81;7314511;19;129494;-39
2023/07/01 01:23:28;;;;;;;34.45;3.85;;;;;;;25.11;59.80;98795.78;7314032;19;130295;-39
2023/07/01 01:26:05;;;;;;;30.80;3.25;;;;;;;25.09;59.44;98797.81;7314405;19;130123;-39
2023/07/01 01:28:31;;;;;;;;;;;;;;;25.19;59.81;98798.31;7308976;19;130201;-39
2023/07/01 01:30:56;;;;;;;43.40;3.90;;;;;;;25.04;59.81;98785.16;7308575;19;129212;-39
2023/07/01 01:33:21;;;;;;;37.73;3.60;;;;;;;25.11;59.12;98795.78;7309849;19;129623;-37
2023/07/01 01:35:47;;;;;;;42.90;3.87;;;;;;;25.10;59.48;98788.91;7314090;19;129255;-39
2023/07/01 01:38:25;;;;;;;44.67;4.07;;;;;;;25.11;59.26;98790.53;7309044;19;130263;-41
2023/07/01 01:41:09;;;;;;;55.20;5.03;;;;;;;25.11;59.38;98783.47;7308042;19;129767;-39
2023/07/01 01:43:53;;;;;;;29.25;3.00;;;;;;;25.07;59.73;98779.53;7309468;19;129768;-40
2023/07/01 01:46:21;;;;;;;33.88;3.47;;;;;;;25.08;59.60;98775.09;7308198;19;131023;-40
2023/07/01 01:48:46;;;;;;;46.88;4.50;;;;;;;25.09;59.51;98776.75;7308134;19;129723;-37
2023/07/01 01:51:14;;;;;;;54.33;5.00;;;;;;;25.08;60.05;98775.09;7306933;19;130668;-39
2023/07/01 01:53:42;;;;;;;38.60;3.55;;;;;;;25.09;59.36;98774.13;7307382;19;130739;-39
2023/07/01 01:56:09;;;;;;;31.08;3.25;;;;;;;24.98;59.63;98754.34;7313171;19;129392;-40
2023/07/01 01:58:35;;;;;;;31.75;3.33;;;;;;;24.98;60.02;98753.53;7308030;19;129441;-38
2023/07/01 02:01:00;;;;;;;22.23;2.50;;;;;;;25.09;59.77;98767.03;7313642;19;129277;-38
2023/07/01 02:03:25;;;;;;;46.53;4.17;;;;;;;25.09;59.11;98760.97;7312434;19;129597;-40
2023/07/01 02:05:51;;;;;;;33.70;3.37;;;;;;;25.06;59.37;98762.13;7313443;19;129275;-39
2023/07/01 02:08:16;;;;;;;39.87;3.90;;;;;;;25.10;59.91;98759.97;7311068;19;129214;-40
2023/07/01 02:10:41;;;;;;;21.77;2.87;;;;;;;25.09;59.57;98759.13;7311872;19;129077;-40
2023/07/01 02:13:07;;;;;;;43.73;3.73;;;;;;;25.09;59.60;98756.50;7312429;19;129341;-38
2023/07/01 02:15:32;;;;;;;25.53;2.83;;;;;;;25.09;59.82;98759.13;7313262;19;129493;-41
2023/07/01 02:17:57;;;;;;;13.97;2.10;;;;;;;25.10;59.54;98746.81;7310394;19;128915;-39
2023/07/01 02:20:23;;;;;;;47.87;4.23;;;;;;;25.09;59.67;98748.63;7313602;19;128926;-38
2023/07/01 02:22:48;;;;;;;38.97;3.53;;;;;;;25.09;59.44;98745.19;7310724;19;129382;-38
2023/07/01 02:25:14;;;;;;;24.00;2.77;;;;;;;25.10;59.67;98746.81;7312622;19;129121;-41
2023/07/01 02:27:39;;;;;;;46.37;3.77;;;;;;;25.09;59.75;98750.47;7312231;19;129496;-40
2023/07/01 02:30:06;;;;;;;24.63;2.67;;;;;;;25.09;59.94;98747.81;7311299;19;129643;-39
2023/07/01 02:32:31;;;;;;;29.88;3.08;;;;;;;25.09;59.60;98740.72;7313520;19;128965;-38
2023/07/01 02:34:57;;;;;;;32.33;3.27;;;;;;;25.09;59.35;98746.00;7312880;19;129416;-36
2023/07/01 02:37:22;;;;;;;30.47;3.23;;;;;;;25.09;59.80;98739.94;7311744;19;129465;-40
2023/07/01 02:39:47;;;;;;;31.73;3.30;;;;;;;25.09;59.42;98739.94;7312764;19;129103;-39
2023/07/01 02:42:19;;;;;;;29.90;2.93;;;;;;;25.08;59.70;98743.53;7311507;19;129089;-40
2023/07/01 02:44:46;;;;;;;27.83;2.92;;;;;;;25.08;59.60;98743.53;7311515;19;129732;-40
2023/07/01 02:47:12;;;;;;;53.00;4.50;;;;;;;25.06;59.82;98741.09;7309993;19;129735;-39
2023/07/01 02:49:40;;;;;;;40.57;3.63;;;;;;;25.09;59.63;98750.47;7312947;19;129141;-39
2023/07/01 02:52:09;;;;;;;9.65;1.73;;;;;;;25.08;59.56;98743.53;7312389;19;129239;-39
2023/07/01 02:54:38;;;;;;;29.88;2.92;;;;;;;25.09;59.12;98745.19;7311804;19;130289;-40
2023/07/01 02:57:06;;;;;;;34.53;3.22;;;;;;;25.07;59.56;98747.97;7311907;19;129165;-38
2023/07/01 02:59:31;;;;;;;27.58;2.70;;;;;;;25.07;59.68;98742.72;7311776;19;129152;-39
2023/07/01 03:01:57;;;;;;;35.00;3.03;;;;;;;25.09;59.93;98746.00;7310095;19;129165;-40
2023/07/01 03:04:22;;;;;;;32.37;3.20;;;;;;;25.09;59.74;98747.81;7311444;19;130284;-38
2023/07/01 03:06:47;;;;;;;29.27;2.80;;;;;;;25.01;59.58;98732.13;7311907;19;128852;-39
2023/07/01 03:09:14;;;;;;;35.57;3.17;;;;;;;25.09;59.59;98737.31;7311182;19;129090;-39
2023/07/01 03:11:39;;;;;;;;;;;;;;;25.18;59.69;98738.81;7312477;19;129289;-37
2023/07/01 03:14:05;;;;;;;28.13;2.87;;;;;;;24.99;59.60;98724.41;7311247;19;130155;-39
2023/07/01 03:16:33;;;;;;;32.83;3.00;;;;;;;25.10;59.27;98738.91;7310832;19;129398;-38
2023/07/01 03:18:58;;;;;;;43.35;3.72;;;;;;;25.09;59.74;98739.94;7310884;19;129834;-40
2023/07/01 03:21:27;;;;;;;48.07;4.10;;;;;;;25.10;59.69;98736.28;7308686;19;129078;-39
2023/07/01 03:23:52;;;;;;;22.73;2.60;;;;;;;25.07;59.85;98732.19;7308649;19;130445;-40
2023/07/01 03:26:18;;;;;;;41.67;3.60;;;;;;;25.08;60.15;98740.91;7311734;19;129069;-39
2023/07/01 03:28:44;;;;;;;48.03;3.97;;;;;;;25.08;59.62;98735.66;7311482;19;129858;-39
2023/07/01 03:31:10;;;;;;;24.20;2.55;;;;;;;25.06;59.62;98732.38;7310924;19;129312;-40
2023/07/01 03:33:35;;;;;;;36.17;3.57;;;;;;;25.08;59.38;98743.53;7308272;19;129295;-39
2023/07/01 03:36:01;;;;;;;50.63;4.37;;;;;;;25.07;60.02;98741.94;7310408;19;129262;-39
2023/07/01 03:38:26;;;;;;;59.20;4.73;;;;;;;25.08;60.04;98743.53;7306568;19;129260;-39
2023/07/01 03:40:51;;;;;;;31.40;2.97;;;;;;;25.08;59.90;98741.75;7311633;19;129061;-39
2023/07/01 03:43:17;;;;;;;52.60;4.50;;;;;;;25.08;59.32;98738.28;7317357;19;129520;-39
2023/07/01 03:45:42;;;;;;;26.57;2.80;;;;;;;25.08;59.95;98733.03;7316060;19;129943;-40
2023/07/01 03:48:08;;;;;;;48.60;4.10;;;;;;;25.00;59.99;98718.16;7314979;19;129585;-36
2023/07/01 03:50:33;;;;;;;24.10;2.47;;;;;;;25.05;59.69;98734.22;7317653;19;129379;-38
2023/07/01 03:52:59;;;;;;;44.90;4.00;;;;;;;25.01;59.97;98716.34;7317392;19;129232;-40
2023/07/01 03:55:25;;;;;;;40.60;3.57;;;;;;;25.07;60.02;98740.09;7318013;19;130728;-40
2023/07/01 03:57:51;;;;;;;15.27;2.10;;;;;;;25.09;60.03;98734.69;7315447;19;129395;-41
2023/07/01 04:00:19;;;;;;;25.30;2.67;;;;;;;25.04;59.31;98739.66;7315452;19;129145;-38
2023/07/01 04:02:50;;;;;;;51.20;4.30;;;;;;;24.98;59.38;98722.78;7312639;19;129260;-40
2023/07/01 04:05:16;;;;;;;36.58;3.22;;;;;;;25.08;60.03;98738.28;7317827;19;129301;-40
2023/07/01 04:07:43;;;;;;;30.92;2.95;;;;;;;25.06;59.40;98741.09;7314664;19;130029;-39
2023/07/01 04:10:10;;;;;;;26.45;2.47;;;;;;;24.96;59.75;98724.78;7317171;19;130058;-40
2023/07/01 04:12:37;;;;;;;30.52;2.78;;;;;;;25.06;59.72;98742.91;7318231;19;130926;-39
2023/07/01 04:15:09;;;;;;;30.35;3.22;;;;;;;25.08;59.31;98748.81;7315227;19;129838;-39
2023/07/01 04:17:36;;;;;;;16.77;2.05;;;;;;;25.07;59.72;98742.72;7315671;19;128947;-40
2023/07/01 04:20:03;;;;;;;31.30;2.83;;;;;;;25.07;59.27;98737.47;7315436;19;129154;-38
2023/07/01 04:22:28;;;;;;;43.05;3.65;;;;;;;25.06;60.06;98745.53;7314325;19;129985;-39
2023/07/01 04:24:53;;;;;;;35.60;3.00;;;;;;;25.07;59.31;98742.72;7316079;19;128904;-39
2023/07/01 04:27:19;;;;;;;72.30;5.37;;;;;;;25.08;59.60;98741.75;7314169;19;128967;-39
2023/07/01 04:29:45;;;;;;;38.00;3.43;;;;;;;25.07;59.48;98744.56;7313972;19;130961;-39
2023/07/01 04:32:10;;;;;;;25.17;2.53;;;;;;;25.08;59.75;98743.53;7316199;19;129322;-40
2023/07/01 04:34:36;;;;;;;23.57;2.27;;;;;;;25.08;59.79;98740.91;7315936;19;129829;-39
2023/07/01 04:37:01;;;;;;;32.07;2.57;;;;;;;25.07;59.61;98747.19;7316118;19;129027;-38
2023/07/01 04:39:26;;;;;;;38.97;3.50;;;;;;;25.07;59.33;98741.94;7316764;19;129380;-41
2023/07/01 04:41:52;;;;;;;29.60;2.87;;;;;;;25.07;59.45;98744.56;7314880;19;130188;-39
2023/07/01 04:44:17;;;;;;;33.70;3.13;;;;;;;25.08;59.99;98743.53;7315571;19;128961;-42
2023/07/01 04:46:42;;;;;;;64.60;4.57;;;;;;;25.04;60.05;98745.72;7315608;19;129695;-41
2023/07/01 04:49:09;;;;;;;22.53;2.53;;;;;;;25.07;59.75;98745.34;7315026;19;129601;-42
2023/07/01 04:51:37;;;;;;;48.38;3.88;;;;;;;25.07;59.77;98744.56;7314850;19;131181;-39
2023/07/01 04:54:04;;;;;;;87.80;6.28;;;;;;;25.05;59.75;98743.91;7308331;19;129678;-39
2023/07/01 04:56:29;;;;;;;;;;;;;;;25.16;59.63;98732.91;7314470;19;129927;-39
2023/07/01 04:58:55;;;;;;;52.78;3.83;;;;;;;25.08;59.70;98735.66;7312625;19;129762;-42
2023/07/01 05:01:20;;;;;;;53.73;4.30;;;;;;;25.05;59.25;98738.66;7311933;19;131374;-40
2023/07/01 05:03:45;;;;;;;60.93;4.57;;;;;;;25.07;59.25;98752.44;7313797;19;129961;-41
2023/07/01 05:06:11;;;;;;;125.13;8.47;;;;;;;25.07;59.93;98747.19;7313323;19;129153;-35
2023/07/01 05:08:36;;;;;;;25.70;2.67;;;;;;;25.06;60.03;98749.00;7308233;19;129927;-42
2023/07/01 05:11:03;;;;;;;37.97;3.10;;;;;;;25.07;59.55;98752.44;7315075;19;129302;-41
2023/07/01 05:13:28;;;;;;;49.08;4.15;;;;;;;25.06;59.34;98754.25;7308168;19;129946;-43
2023/07/01 05:15:53;;;;;;;36.37;3.10;;;;;;;25.05;59.49;98747.38;7314116;19;129310;-39
2023/07/01 05:18:19;;;;;;;50.57;4.43;;;;;;;24.96;59.51;98737.09;7311486;19;129103;-39
2023/07/01 05:20:44;;;;;;;20.17;2.27;;;;;;;25.06;59.38;98751.63;7314881;19;129944;-41
2023/07/01 05:23:09;;;;;;;29.13;2.63;;;;;;;25.07;59.93;98757.72;7310984;19;129017;-42
2023/07/01 05:25:35;;;;;;;36.43;3.10;;;;;;;25.07;60.13;98755.06;7316151;19;129647;-37
2023/07/01 05:28:00;;;;;;;43.73;3.30;;;;;;;25.06;59.41;98761.31;7310050;19;129287;-42
2023/07/01 05:30:25;;;;;;;35.43;3.13;;;;;;;25.04;59.75;98750.19;7313399;19;129655;-39
2023/07/01 05:32:51;;;;;;;69.50;5.30;;;;;;;25.06;59.62;98756.06;7310012;19;129207;-42
2023/07/01 05:35:16;;;;;;;38.40;3.20;;;;;;;25.04;59.90;98755.44;7314263;19;129048;-42
2023/07/01 05:37:42;;;;;;;35.07;3.10;;;;;;;25.02;59.52;98753.00;7311801;19;130049;-40
2023/07/01 05:40:08;;;;;;;26.50;2.83;;;;;;;25.06;59.71;98761.31;7312489;19;131088;-42
2023/07/01 05:42:33;;;;;;;42.37;3.27;;;;;;;25.06;60.03;98754.25;7311040;19;129735;-39
2023/07/01 05:44:58;;;;;;;41.13;3.10;;;;;;;25.03;60.22;98757.25;7313724;19;128958;-42
2023/07/01 05:47:24;;;;;;;83.23;5.93;;;;;;;25.06;60.13;98756.06;7307876;19;129906;-40
2023/07/01 05:49:49;;;;;;;31.63;2.83;;;;;;;25.03;59.81;98751.16;7310091;19;131944;-41
2023/07/01 05:52:15;;;;;;;32.63;2.90;;;;;;;25.05;59.37;98754.44;7313542;19;128919;-41
2023/07/01 05:54:40;;;;;;;25.93;2.57;;;;;;;25.05;59.67;98757.06;7313504;19;129284;-36
2023/07/01 05:57:05;;;;;;;27.73;2.70;;;;;;;25.05;59.39;98763.16;7309945;19;129711;-40
2023/07/01 05:59:31;;;;;;;50.17;3.43;;;;;;;25.04;60.03;98755.44;7312510;19;130163;-43
2023/07/01 06:01:56;;;;;;;29.73;2.60;;;;;;;25.06;59.64;98764.78;7310697;19;129013;-39
2023/07/01 06:04:22;;;;;;;29.77;2.60;;;;;;;25.06;60.04;98769.22;7310933;19;129203;-42
2023/07/01 06:06:48;;;;;;;35.88;3.25;;;;;;;24.99;59.81;98757.81;7309741;19;129809;-42
2023/07/01 06:09:15;;;;;;;44.53;3.80;;;;;;;25.05;60.12;98765.78;7312842;19;130338;-41
2023/07/01 06:11:40;;;;;;;92.30;6.50;;;;;;;25.02;59.59;98760.06;7310993;19;129961;-37
2023/07/01 06:14:06;;;;;;;41.87;3.00;;;;;;;25.06;59.68;98761.31;7311968;19;131981;-42
2023/07/01 06:16:31;;;;;;;28.87;2.50;;;;;;;25.07;60.12;98762.97;7312862;19;128967;-41
2023/07/01 06:18:56;;;;;;;34.83;3.57;;;;;;;25.09;59.96;98758.34;7313272;19;129272;-41
2023/07/01 06:21:22;;;;;;;82.87;6.37;;;;;;;25.08;60.15;98765.41;7311885;19;129103;-42
2023/07/01 06:23:47;;;;;;;45.00;3.87;;;;;;;25.07;60.01;98757.72;7311525;19;130045;-39
2023/07/01 06:26:13;;;;;;;32.40;3.07;;;;;;;25.06;59.80;98761.31;7313441;19;129255;-43
2023/07/01 06:28:38;;;;;;;24.00;2.40;;;;;;;25.06;59.77;98758.69;7310054;19;129522;-41
2023/07/01 06:31:03;;;;;;;65.53;4.80;;;;;;;25.05;59.45;98754.44;7312269;19;129025;-42
2023/07/01 06:33:29;;;;;;;34.60;3.10;;;;;;;25.05;60.04;98755.25;7311605;19;129235;-41
2023/07/01 06:35:54;;;;;;;37.60;3.73;;;;;;;25.03;60.19;98751.16;7312983;19;128963;-40
2023/07/01 06:38:20;;;;;;;42.80;3.77;;;;;;;25.06;59.82;98750.78;7306596;19;129625;-40
2023/07/01 06:40:45;;;;;;;38.60;3.57;;;;;;;25.06;59.39;98756.88;7312627;19;129427;-42
2023/07/01 06:43:11;;;;;;;27.17;2.73;;;;;;;25.07;59.78;98747.19;7306863;19;131289;-39
2023/07/01 06:45:37;;;;;;;28.83;2.83;;;;;;;25.05;59.80;98751.81;7310171;19;129776;-42
2023/07/01 06:48:03;;;;;;;23.05;2.83;;;;;;;25.05;59.49;98765.78;7306896;19;129937;-42
2023/07/01 06:50:29;;;;;;;27.80;3.07;;;;;;;25.06;59.46;98758.69;7309625;19;129048;-41
2023/07/01 06:52:54;;;;;;;33.13;3.37;;;;;;;25.06;59.61;98750.78;7312175;19;128878;-43
2023/07/01 06:55:20;;;;;;;75.90;5.97;;;;;;;25.05;59.74;98757.06;7309445;19;129280;-41
2023/07/01 06:57:45;;;;;;;30.87;3.03;;;;;;;25.03;59.90;98751.16;7310001;19;130434;-42
2023/07/01 07:00:12;;;;;;;25.47;2.67;;;;;;;25.05;59.58;98749.19;7312085;19;129644;-41
2023/07/01 07:02:38;;;;;;;22.17;2.95;;;;;;;25.05;60.26;98749.19;7309482;19;128831;-38
2023/07/01 07:05:05;;;;;;;24.67;2.57;;;;;;;24.94;59.68;98726.78;7311310;19;129249;-39
2023/07/01 07:07:30;;;;;;;84.07;6.38;;;;;;;25.05;59.50;98743.91;7305562;19;130361;-41
2023/07/01 07:09:56;;;;;;;54.10;4.97;;;;;;;25.06;59.45;98735.00;7309663;19;129816;-40
2023/07/01 07:12:21;;;;;;;53.93;4.50;;;;;;;25.03;60.21;98735.38;7310481;19;129406;-40
2023/07/01 07:14:47;;;;;;;30.70;3.40;;;;;;;25.04;59.54;98731.78;7309118;19;130037;-40
2023/07/01 07:17:12;;;;;;;33.47;3.50;;;;;;;25.05;59.90;98728.97;7315266;19;129744;-40
2023/07/01 07:19:38;;;;;;;22.37;2.77;;;;;;;25.06;59.55;98735.00;7316914;19;129079;-38
2023/07/01 07:22:04;;;;;;;45.50;4.03;;;;;;;25.04;60.11;98726.50;7317314;19;129845;-39
2023/07/01 07:24:29;;;;;;;67.72;6.30;;;;;;;25.06;59.89;98725.31;7316498;19;129049;-40
2023/07/01 07:26:57;;;;;;;49.63;4.70;;;;;;;25.08;59.52;98730.41;7313985;19;129377;-42
2023/07/01 07:29:24;;;;;;;54.42;5.80;;;;;;;25.08;60.18;98717.25;7316319;19;128952;-40
2023/07/01 07:31:50;;;;;;;33.22;3.70;;;;;;;25.07;60.24;98715.63;7316985;19;129180;-40
2023/07/01 07:34:15;;;;;;;34.67;4.13;;;;;;;25.06;59.95;98713.97;7318542;19;131843;-40
2023/07/01 07:36:40;;;;;;;33.83;3.80;;;;;;;25.05;59.87;98712.34;7316418;19;129689;-40
2023/07/01 07:39:06;;;;;;;36.50;4.00;;;;;;;25.04;59.75;98711.53;7317668;19;129205;-39
2023/07/01 07:41:32;;;;;;;32.27;3.83;;;;;;;25.04;59.62;98716.00;7316650;19;128825;-40
2023/07/01 07:43:57;;;;;;;47.83;4.40;;;;;;;25.04;60.29;98713.38;7315522;19;130728;-39
2023/07/01 07:46:22;;;;;;;44.60;4.10;;;;;;;25.02;60.21;98696.94;7316811;19;129135;-39
2023/07/01 07:48:48;;;;;;;33.77;3.80;;;;;;;25.05;60.31;98701.84;7316741;19;128917;-39
2023/07/01 07:51:13;;;;;;;33.80;3.67;;;;;;;25.05;60.31;98696.56;7317805;19;129379;-39
2023/07/01 07:53:39;;;;;;;38.40;3.70;;;;;;;25.05;59.98;98696.56;7316030;19;129080;-39
2023/07/01 07:56:04;;;;;;;52.30;4.73;;;;;;;25.04;60.19;98694.94;7314163;19;129551;-39
2023/07/01 07:58:29;;;;;;;38.73;4.03;;;;;;;24.94;60.14;98670.75;7313110;19;129297;-40
2023/07/01 08:00:55;;;;;;;44.07;4.07;;;;;;;25.04;59.90;98690.50;7316296;19;129730;-38
2023/07/01 08:03:20;;;;;;;36.17;3.70;;;;;;;25.05;60.27;98696.56;7312450;19;129308;-39
2023/07/01 08:05:48;;;;;;;33.90;3.67;;;;;;;25.03;59.72;98691.50;7317218;19;129657;-39
2023/07/01 08:08:14;;;;;;;44.13;4.32;;;;;;;25.03;59.62;98685.41;7313573;19;129214;-40
2023/07/01 08:10:44;;;;;;;15.57;2.70;;;;;;;25.04;59.90;98687.06;7317298;19;129257;-40
2023/07/01 08:13:09;;;;;;;44.92;3.80;;;;;;;25.04;59.73;98689.69;7315373;19;129396;-41
2023/07/01 08:15:34;;;;;;;13.10;2.60;;;;;;;25.05;59.99;98686.06;7315733;19;130267;-39
2023/07/01 08:18:00;;;;;;;25.30;2.90;;;;;;;25.04;59.60;98685.22;7314730;19;129005;-39
2023/07/01 08:20:25;;;;;;;36.77;3.73;;;;;;;24.93;59.92;98667.28;7317211;19;129373;-38
2023/07/01 08:22:50;;;;;;;53.93;4.93;;;;;;;25.04;59.92;98687.06;7313654;19;129236;-39
2023/07/01 08:25:16;;;;;;;25.63;3.37;;;;;;;25.01;59.60;98666.38;7316400;19;131962;-39
2023/07/01 08:27:41;;;;;;;62.80;5.53;;;;;;;25.01;59.83;98674.25;7313481;19;129140;-39
2023/07/01 08:30:07;;;;;;;28.17;3.43;;;;;;;25.02;60.12;98671.47;7316459;19;129105;-38
2023/07/01 08:32:33;;;;;;;27.00;2.90;;;;;;;25.03;60.35;98680.16;7317210;19;130904;-39
2023/07/01 08:34:58;;;;;;;24.90;2.95;;;;;;;25.03;60.36;98677.53;7316713;19;129094;-41
2023/07/01 08:37:25;;;;;;;40.53;3.63;;;;;;;25.02;59.98;98673.28;7315624;19;129894;-40
2023/07/01 08:39:50;;;;;;;33.45;3.42;;;;;;;25.02;60.06;98665.38;7316974;19;129446;-42
2023/07/01 08:42:21;;;;;;;64.23;5.57;;;;;;;25.04;60.01;98660.75;7314894;19;131530;-40
2023/07/01 08:44:46;;;;;;;30.73;3.40;;;;;;;24.93;59.69;98651.53;7315731;19;129418;-41
2023/07/01 08:47:15;;;;;;;26.20;2.97;;;;;;;25.02;60.33;98666.22;7313267;19;129452;-41
2023/07/01 08:49:47;;;;;;;15.52;2.20;;;;;;;25.03;60.49;98667.00;7315760;19;128841;-36
2023/07/01 08:52:17;;;;;;;40.08;3.90;;;;;;;25.01;60.38;98658.47;7315274;19;129513;-39
2023/07/01 08:54:43;;;;;;;37.65;3.55;;;;;;;24.96;60.04;98655.59;7314761;19;130522;-41
2023/07/01 08:57:09;;;;;;;12.82;2.53;;;;;;;24.99;60.24;98660.50;7315266;19;129346;-42
2023/07/01 08:59:35;;;;;;;28.13;2.93;;;;;;;25.01;59.78;98669.81;7313889;19;129639;-42
2023/07/01 09:02:01;;;;;;;20.80;2.57;;;;;;;25.02;59.60;98671.47;7314634;19;129813;-42
2023/07/01 09:04:27;;;;;;;38.97;3.53;;;;;;;24.92;60.05;98655.16;7314627;19;129107;-42
2023/07/01 09:06:53;;;;;;;18.80;2.37;;;;;;;25.00;60.04;98665.56;7314995;19;128852;-41
2023/07/01 09:09:18;;;;;;;34.33;3.77;;;;;;;25.02;59.98;98660.13;7313572;19;130102;-40
2023/07/01 09:11:43;;;;;;;30.43;3.37;;;;;;;25.03;59.65;98656.47;7315467;19;129161;-42
2023/07/01 09:14:09;;;;;;;30.23;3.00;;;;;;;25.03;60.03;98659.13;7315036;19;129086;-41
2023/07/01 09:16:36;;;;;;;15.77;2.03;;;;;;;25.02;60.41;98649.59;7314154;19;129015;-39
2023/07/01 09:19:16;;;;;;;29.77;3.08;;;;;;;25.00;60.48;98648.97;7313497;19;129698;-41
2023/07/01 09:21:43;;;;;;;21.10;2.78;;;;;;;25.00;60.40;98646.34;7314210;19;130570;-40
2023/07/01 09:24:10;;;;;;;25.35;2.80;;;;;;;25.02;60.00;98654.88;7314411;19;130643;-39
2023/07/01 09:26:36;;;;;;;21.48;2.40;;;;;;;25.01;60.18;98658.47;7314309;19;129007;-42
2023/07/01 09:29:15;;;;;;;25.30;2.65;;;;;;;25.03;59.78;98645.97;7313923;19;129162;-39
2023/07/01 09:31:45;;;;;;;24.27;3.08;;;;;;;25.02;60.62;98649.59;7315058;19;130268;-39
2023/07/01 09:34:11;;;;;;;25.63;2.63;;;;;;;25.01;60.29;98642.69;7313105;19;130339;-37
2023/07/01 09:36:36;;;;;;;24.23;2.53;;;;;;;24.93;59.66;98624.41;7314919;19;129124;-42
2023/07/01 09:39:04;;;;;;;35.30;3.47;;;;;;;24.99;60.19;98631.56;7311570;19;129358;-41
2023/07/01 09:41:30;;;;;;;29.60;3.20;;;;;;;25.00;59.99;98630.56;7314687;19;129265;-41
2023/07/01 09:43:58;;;;;;;60.97;4.73;;;;;;;24.91;60.13;98610.63;7310914;19;131283;-40
2023/07/01 09:46:24;;;;;;;56.78;4.65;;;;;;;25.01;60.01;98633.00;7312456;19;129385;-39
2023/07/01 09:48:54;;;;;;;29.65;3.33;;;;;;;25.02;60.17;98631.19;7313399;19;129350;-40
2023/07/01 09:51:26;;;;;;;42.58;3.75;;;;;;;25.02;59.71;98618.03;7314354;19;130120;-41
2023/07/01 09:53:52;;;;;;;35.58;3.55;;;;;;;24.99;60.42;98613.97;7312033;19;129410;-37
2023/07/01 09:56:18;;;;;;;41.23;3.77;;;;;;;24.98;60.08;98612.34;7313840;19;129195;-41
2023/07/01 09:58:45;;;;;;;36.22;3.13;;;;;;;25.00;59.83;98618.22;7313621;19;129719;-41
2023/07/01 10:01:12;;;;;;;;;;;;;;;25.10;60.01;98615.31;7313274;19;130688;-39
2023/07/01 10:03:37;;;;;;;24.65;2.58;;;;;;;25.02;59.67;98607.53;7310263;19;130989;-41
2023/07/01 10:06:03;;;;;;;26.33;2.67;;;;;;;25.01;60.05;98605.88;7311534;19;129660;-41
2023/07/01 10:08:28;;;;;;;34.40;3.20;;;;;;;25.01;60.01;98608.50;7310328;19;129210;-40
2023/07/01 10:11:02;;;;;;;36.37;3.40;;;;;;;24.99;60.11;98600.00;7314035;19;129321;-40
2023/07/01 10:13:28;;;;;;;38.83;3.47;;;;;;;24.99;60.27;98603.44;7311260;19;129341;-42
2023/07/01 10:15:55;;;;;;;32.13;3.03;;;;;;;24.98;60.05;98601.00;7312296;19;129734;-38
2023/07/01 10:18:22;;;;;;;39.95;3.60;;;;;;;24.99;59.72;98592.13;7309785;19;129227;-41
2023/07/01 10:20:48;;;;;;;32.65;3.13;;;;;;;24.99;59.85;98598.19;7310965;19;130160;-42
2023/07/01 10:23:13;;;;;;;55.03;4.37;;;;;;;25.00;59.52;98604.25;7306050;19;130322;-41
2023/07/01 10:25:40;;;;;;;36.97;3.30;;;;;;;25.01;60.41;98603.25;7312190;19;129777;-41
2023/07/01 10:28:15;;;;;;;27.00;2.92;;;;;;;24.99;60.18;98592.91;7311048;19;129382;-41
2023/07/01 10:30:43;;;;;;;51.25;4.15;;;;;;;24.99;60.24;98597.38;7312073;19;130079;-38
2023/07/01 10:33:27;;;;;;;31.10;3.03;;;;;;;25.02;60.17;98587.31;7311605;19;130320;-41
2023/07/01 10:36:19;;;;;;;72.47;5.50;;;;;;;25.04;59.81;98587.13;7309762;19;128941;-40
2023/07/01 10:38:45;;;;;;;29.73;2.88;;;;;;;25.00;59.59;98580.59;7309485;19;130098;-42
2023/07/01 10:41:10;;;;;;;20.10;2.40;;;;;;;25.00;59.95;98584.03;7312596;19;129643;-41
2023/07/01 10:43:37;;;;;;;30.90;2.73;;;;;;;24.94;60.39;98563.72;7309818;19;131636;-40
2023/07/01 10:46:03;;;;;;;30.20;3.10;;;;;;;25.01;60.40;98579.56;7313355;19;129538;-41
2023/07/01 10:48:28;;;;;;;40.00;3.50;;;;;;;25.00;60.40;98572.69;7310679;19;130833;-41
2023/07/01 10:51:08;;;;;;;37.13;3.50;;;;;;;24.96;59.91;98558.28;7310584;19;129653;-41
2023/07/01 10:53:57;;;;;;;64.75;5.63;;;;;;;25.03;60.39;98561.81;7305359;19;130844;-41
2023/07/01 10:56:23;;;;;;;44.72;3.67;;;;;;;24.99;60.19;98561.34;7312495;19;129110;-41
2023/07/01 10:59:27;;;;;;;46.43;3.73;;;;;;;24.95;60.00;98538.25;7310240;19;129477;-41
2023/07/01 11:01:59;;;;;;;31.85;3.25;;;;;;;24.99;59.71;98550.84;7305188;19;130700;-41
2023/07/01 11:04:44;;;;;;;42.00;3.67;;;;;;;24.99;60.25;98550.84;7304994;19;130508;-39
2023/07/01 11:07:10;;;;;;;24.23;2.67;;;;;;;24.98;59.73;98551.84;7309629;19;128956;-41
2023/07/01 11:09:35;;;;;;;36.23;3.13;;;;;;;24.89;60.01;98523.25;7304923;19;129143;-39
2023/07/01 11:12:03;;;;;;;31.50;3.00;;;;;;;24.98;60.35;98540.50;7308302;19;129738;-40
2023/07/01 11:14:39;;;;;;;38.17;3.42;;;;;;;25.02;60.58;98539.16;7309088;19;130531;-40
2023/07/01 11:17:14;;;;;;;26.38;2.67;;;;;;;25.01;60.10;98532.25;7311301;19;130553;-39
2023/07/01 11:19:40;;;;;;;35.00;3.15;;;;;;;24.99;60.15;98534.25;7307365;19;129357;-40